sensor_id;sensor_type;location;lat;lon;timestamp;P1;durP1;ratioP1;P2;durP2;ratioP2
17967;SDS011;9109;48.050;11.696;2023-03-26T00:00:05;4.60;;;0.80;;
17967;SDS011;9109;48.050;11.696;2023-03-26T03:48:30;7.93;;;1.70;;
17967;SDS011;9109;48.050;11.696;2023-03-26T03:51:32;7.23;;;1.63;;
17967;SDS011;9109;48.050;11.696;2023-03-26T03:54:35;9.50;;;1.53;;
17967;SDS011;9109;48.050;11.696;2023-03-26T03:57:37;10.63;;;1.73;;
17967;SDS011;9109;48.050;11.696;2023-03-26T04:00:39;6.87;;;1.70;;
17967;SDS011;9109;48.050;11.696;2023-03-26T04:03:45;7.37;;;1.40;;
17967;SDS011;9109;48.050;11.696;2023-03-26T04:06:47;5.73;;;1.30;;
17967;SDS011;9109;48.050;11.696;2023-03-26T04:09:48;7.57;;;1.60;;
17967;SDS011;9109;48.050;11.696;2023-03-26T04:12:50;5.40;;;1.33;;
17967;SDS011;9109;48.050;11.696;2023-03-26T04:15:52;7.17;;;1.30;;
17967;SDS011;9109;48.050;11.696;2023-03-26T04:18:56;6.07;;;1.83;;
17967;SDS011;9109;48.050;11.696;2023-03-26T04:22:01;8.53;;;1.90;;
17967;SDS011;9109;48.050;11.696;2023-03-26T04:25:03;7.33;;;1.40;;
17967;SDS011;9109;48.050;11.696;2023-03-26T04:28:06;6.90;;;1.60;;
17967;SDS011;9109;48.050;11.696;2023-03-26T04:31:11;9.53;;;1.70;;
17967;SDS011;9109;48.050;11.696;2023-03-26T04:34:19;7.53;;;1.40;;
17967;SDS011;9109;48.050;11.696;2023-03-26T04:37:25;5.87;;;1.60;;
17967;SDS011;9109;48.050;11.696;2023-03-26T04:40:31;11.53;;;1.60;;
17967;SDS011;9109;48.050;11.696;2023-03-26T04:43:34;11.80;;;1.43;;
17967;SDS011;9109;48.050;11.696;2023-03-26T04:46:36;8.03;;;1.40;;
17967;SDS011;9109;48.050;11.696;2023-03-26T04:49:43;7.40;;;1.37;;
17967;SDS011;9109;48.050;11.696;2023-03-26T04:52:46;11.13;;;1.50;;
17967;SDS011;9109;48.050;11.696;2023-03-26T04:55:49;10.03;;;1.70;;
17967;SDS011;9109;48.050;11.696;2023-03-26T04:58:56;9.70;;;2.27;;
17967;SDS011;9109;48.050;11.696;2023-03-26T05:02:01;5.53;;;1.60;;
17967;SDS011;9109;48.050;11.696;2023-03-26T05:05:06;12.27;;;1.60;;
17967;SDS011;9109;48.050;11.696;2023-03-26T05:08:08;10.90;;;1.23;;
17967;SDS011;9109;48.050;11.696;2023-03-26T05:11:10;9.27;;;1.37;;
17967;SDS011;9109;48.050;11.696;2023-03-26T05:14:12;3.27;;;1.40;;
17967;SDS011;9109;48.050;11.696;2023-03-26T05:17:14;13.30;;;1.47;;
17967;SDS011;9109;48.050;11.696;2023-03-26T05:20:19;8.40;;;1.53;;
17967;SDS011;9109;48.050;11.696;2023-03-26T05:23:23;11.67;;;2.03;;
17967;SDS011;9109;48.050;11.696;2023-03-26T05:26:25;12.10;;;1.47;;
17967;SDS011;9109;48.050;11.696;2023-03-26T05:29:28;9.27;;;1.20;;
17967;SDS011;9109;48.050;11.696;2023-03-26T05:32:30;4.53;;;1.50;;
17967;SDS011;9109;48.050;11.696;2023-03-26T05:35:34;8.73;;;1.40;;
17967;SDS011;9109;48.050;11.696;2023-03-26T05:38:36;6.70;;;1.47;;
17967;SDS011;9109;48.050;11.696;2023-03-26T05:41:38;4.37;;;1.50;;
17967;SDS011;9109;48.050;11.696;2023-03-26T05:44:40;3.87;;;1.20;;
17967;SDS011;9109;48.050;11.696;2023-03-26T05:47:42;9.50;;;1.60;;
17967;SDS011;9109;48.050;11.696;2023-03-26T05:50:47;9.57;;;1.10;;
17967;SDS011;9109;48.050;11.696;2023-03-26T05:53:49;4.53;;;1.47;;
17967;SDS011;9109;48.050;11.696;2023-03-26T05:56:51;7.00;;;1.60;;
17967;SDS011;9109;48.050;11.696;2023-03-26T05:59:53;6.40;;;1.10;;
17967;SDS011;9109;48.050;11.696;2023-03-26T06:02:55;5.93;;;1.50;;
17967;SDS011;9109;48.050;11.696;2023-03-26T06:05:59;6.23;;;1.43;;
17967;SDS011;9109;48.050;11.696;2023-03-26T06:09:01;7.10;;;1.27;;
17967;SDS011;9109;48.050;11.696;2023-03-26T06:12:03;7.00;;;1.50;;
17967;SDS011;9109;48.050;11.696;2023-03-26T06:15:06;5.63;;;1.27;;
17967;SDS011;9109;48.050;11.696;2023-03-26T06:18:09;9.83;;;1.40;;
17967;SDS011;9109;48.050;11.696;2023-03-26T06:21:12;4.60;;;1.20;;
17967;SDS011;9109;48.050;11.696;2023-03-26T06:24:14;9.40;;;1.30;;
17967;SDS011;9109;48.050;11.696;2023-03-26T06:27:18;2.97;;;1.20;;
17967;SDS011;9109;48.050;11.696;2023-03-26T06:30:19;5.67;;;1.53;;
17967;SDS011;9109;48.050;11.696;2023-03-26T06:33:23;4.90;;;1.37;;
17967;SDS011;9109;48.050;11.696;2023-03-26T06:36:26;3.50;;;1.40;;
17967;SDS011;9109;48.050;11.696;2023-03-26T06:39:29;4.03;;;1.33;;
17967;SDS011;9109;48.050;11.696;2023-03-26T06:42:31;6.80;;;1.13;;
17967;SDS011;9109;48.050;11.696;2023-03-26T06:45:33;3.87;;;1.73;;
17967;SDS011;9109;48.050;11.696;2023-03-26T06:48:35;5.47;;;1.23;;
17967;SDS011;9109;48.050;11.696;2023-03-26T06:51:41;12.33;;;1.53;;
17967;SDS011;9109;48.050;11.696;2023-03-26T06:54:47;6.20;;;1.83;;
17967;SDS011;9109;48.050;11.696;2023-03-26T06:57:58;4.77;;;1.37;;
17967;SDS011;9109;48.050;11.696;2023-03-26T07:01:03;3.10;;;1.33;;
17967;SDS011;9109;48.050;11.696;2023-03-26T07:04:05;9.03;;;1.33;;
17967;SDS011;9109;48.050;11.696;2023-03-26T07:07:13;7.13;;;1.53;;
17967;SDS011;9109;48.050;11.696;2023-03-26T07:10:27;7.47;;;1.70;;
17967;SDS011;9109;48.050;11.696;2023-03-26T07:13:34;8.87;;;1.67;;
17967;SDS011;9109;48.050;11.696;2023-03-26T07:16:43;12.00;;;1.53;;
17967;SDS011;9109;48.050;11.696;2023-03-26T07:20:10;6.63;;;1.70;;
17967;SDS011;9109;48.050;11.696;2023-03-26T07:26:56;3.83;;;1.10;;
17967;SDS011;9109;48.050;11.696;2023-03-26T07:30:16;8.83;;;1.30;;
17967;SDS011;9109;48.050;11.696;2023-03-26T07:33:41;2.73;;;0.97;;
17967;SDS011;9109;48.050;11.696;2023-03-26T07:36:54;6.27;;;1.60;;
17967;SDS011;9109;48.050;11.696;2023-03-26T07:40:07;6.57;;;2.73;;
17967;SDS011;9109;48.050;11.696;2023-03-26T07:43:24;16.87;;;6.57;;
17967;SDS011;9109;48.050;11.696;2023-03-26T07:46:43;13.87;;;6.40;;
17967;SDS011;9109;48.050;11.696;2023-03-26T07:49:47;8.73;;;1.50;;
17967;SDS011;9109;48.050;11.696;2023-03-26T07:53:00;7.43;;;2.33;;
17967;SDS011;9109;48.050;11.696;2023-03-26T07:56:16;12.90;;;3.17;;
17967;SDS011;9109;48.050;11.696;2023-03-26T07:59:24;10.30;;;2.40;;
17967;SDS011;9109;48.050;11.696;2023-03-26T08:06:30;5.47;;;1.80;;
17967;SDS011;9109;48.050;11.696;2023-03-26T08:09:58;17.00;;;3.33;;
17967;SDS011;9109;48.050;11.696;2023-03-26T08:17:08;7.03;;;3.20;;
17967;SDS011;9109;48.050;11.696;2023-03-26T08:20:40;7.30;;;2.20;;
17967;SDS011;9109;48.050;11.696;2023-03-26T08:24:00;10.63;;;2.13;;
17967;SDS011;9109;48.050;11.696;2023-03-26T08:27:25;4.77;;;1.97;;
17967;SDS011;9109;48.050;11.696;2023-03-26T08:38:04;6.00;;;1.90;;
17967;SDS011;9109;48.050;11.696;2023-03-26T08:49:17;5.57;;;1.80;;
17967;SDS011;9109;48.050;11.696;2023-03-26T08:56:46;8.10;;;1.60;;
17967;SDS011;9109;48.050;11.696;2023-03-26T09:00:00;7.80;;;1.80;;
17967;SDS011;9109;48.050;11.696;2023-03-26T09:10:39;11.40;;;1.30;;
17967;SDS011;9109;48.050;11.696;2023-03-26T09:14:03;4.87;;;1.80;;
17967;SDS011;9109;48.050;11.696;2023-03-26T09:17:44;8.43;;;2.00;;
17967;SDS011;9109;48.050;11.696;2023-03-26T09:21:09;7.10;;;1.50;;
17967;SDS011;9109;48.050;11.696;2023-03-26T09:24:49;6.70;;;1.37;;
17967;SDS011;9109;48.050;11.696;2023-03-26T09:31:47;7.70;;;1.80;;
17967;SDS011;9109;48.050;11.696;2023-03-26T09:35:10;3.63;;;1.37;;
17967;SDS011;9109;48.050;11.696;2023-03-26T09:38:17;5.87;;;1.47;;
17967;SDS011;9109;48.050;11.696;2023-03-26T09:41:34;9.17;;;1.63;;
17967;SDS011;9109;48.050;11.696;2023-03-26T09:44:54;5.67;;;2.03;;
17967;SDS011;9109;48.050;11.696;2023-03-26T09:48:24;7.67;;;1.70;;
17967;SDS011;9109;48.050;11.696;2023-03-26T09:51:49;6.87;;;1.70;;
17967;SDS011;9109;48.050;11.696;2023-03-26T09:58:39;5.73;;;1.93;;
17967;SDS011;9109;48.050;11.696;2023-03-26T10:01:56;6.70;;;1.70;;
17967;SDS011;9109;48.050;11.696;2023-03-26T10:08:43;4.37;;;1.43;;
17967;SDS011;9109;48.050;11.696;2023-03-26T10:15:31;8.37;;;1.40;;
17967;SDS011;9109;48.050;11.696;2023-03-26T10:18:39;4.23;;;1.40;;
17967;SDS011;9109;48.050;11.696;2023-03-26T10:21:52;4.73;;;1.30;;
17967;SDS011;9109;48.050;11.696;2023-03-26T10:25:13;6.07;;;1.43;;
17967;SDS011;9109;48.050;11.696;2023-03-26T10:28:28;5.17;;;1.47;;
17967;SDS011;9109;48.050;11.696;2023-03-26T10:31:56;10.47;;;1.77;;
17967;SDS011;9109;48.050;11.696;2023-03-26T10:35:10;4.30;;;1.27;;
17967;SDS011;9109;48.050;11.696;2023-03-26T10:38:23;4.67;;;2.00;;
17967;SDS011;9109;48.050;11.696;2023-03-26T10:41:37;4.37;;;1.87;;
17967;SDS011;9109;48.050;11.696;2023-03-26T10:44:57;6.00;;;1.70;;
17967;SDS011;9109;48.050;11.696;2023-03-26T10:48:20;6.73;;;1.40;;
17967;SDS011;9109;48.050;11.696;2023-03-26T10:51:35;10.27;;;2.20;;
17967;SDS011;9109;48.050;11.696;2023-03-26T10:54:54;6.83;;;1.83;;
17967;SDS011;9109;48.050;11.696;2023-03-26T10:57:57;12.17;;;2.57;;
17967;SDS011;9109;48.050;11.696;2023-03-26T11:01:02;7.70;;;1.80;;
17967;SDS011;9109;48.050;11.696;2023-03-26T11:04:17;3.07;;;1.43;;
17967;SDS011;9109;48.050;11.696;2023-03-26T11:07:28;4.40;;;1.17;;
17967;SDS011;9109;48.050;11.696;2023-03-26T11:10:41;5.30;;;1.50;;
17967;SDS011;9109;48.050;11.696;2023-03-26T11:13:52;2.57;;;0.90;;
17967;SDS011;9109;48.050;11.696;2023-03-26T11:17:00;5.93;;;2.20;;
17967;SDS011;9109;48.050;11.696;2023-03-26T11:20:06;5.63;;;1.40;;
17967;SDS011;9109;48.050;11.696;2023-03-26T11:23:17;4.73;;;1.20;;
17967;SDS011;9109;48.050;11.696;2023-03-26T11:26:39;6.23;;;1.07;;
17967;SDS011;9109;48.050;11.696;2023-03-26T11:29:53;3.83;;;1.33;;
17967;SDS011;9109;48.050;11.696;2023-03-26T11:33:03;1.20;;;1.00;;
17967;SDS011;9109;48.050;11.696;2023-03-26T11:36:08;10.10;;;1.77;;
17967;SDS011;9109;48.050;11.696;2023-03-26T11:39:14;4.90;;;1.50;;
17967;SDS011;9109;48.050;11.696;2023-03-26T11:42:24;4.07;;;1.13;;
17967;SDS011;9109;48.050;11.696;2023-03-26T11:45:29;6.40;;;1.07;;
17967;SDS011;9109;48.050;11.696;2023-03-26T11:48:37;1.90;;;1.03;;
17967;SDS011;9109;48.050;11.696;2023-03-26T11:51:43;2.70;;;1.30;;
17967;SDS011;9109;48.050;11.696;2023-03-26T11:54:47;5.17;;;1.10;;
17967;SDS011;9109;48.050;11.696;2023-03-26T11:57:52;5.17;;;1.20;;
17967;SDS011;9109;48.050;11.696;2023-03-26T12:01:00;7.03;;;1.23;;
17967;SDS011;9109;48.050;11.696;2023-03-26T12:04:05;5.83;;;1.53;;
17967;SDS011;9109;48.050;11.696;2023-03-26T12:07:14;5.57;;;1.30;;
17967;SDS011;9109;48.050;11.696;2023-03-26T12:10:24;6.83;;;1.20;;
17967;SDS011;9109;48.050;11.696;2023-03-26T12:13:32;5.57;;;1.50;;
17967;SDS011;9109;48.050;11.696;2023-03-26T12:16:36;6.20;;;1.67;;
17967;SDS011;9109;48.050;11.696;2023-03-26T12:19:39;5.83;;;1.83;;
17967;SDS011;9109;48.050;11.696;2023-03-26T12:22:42;5.17;;;1.67;;
17967;SDS011;9109;48.050;11.696;2023-03-26T12:25:45;5.93;;;1.60;;
17967;SDS011;9109;48.050;11.696;2023-03-26T12:29:09;3.90;;;1.80;;
17967;SDS011;9109;48.050;11.696;2023-03-26T12:32:12;2.90;;;1.40;;
17967;SDS011;9109;48.050;11.696;2023-03-26T12:35:15;3.40;;;1.20;;
17967;SDS011;9109;48.050;11.696;2023-03-26T12:38:23;8.03;;;1.70;;
17967;SDS011;9109;48.050;11.696;2023-03-26T12:41:33;4.53;;;1.30;;
17967;SDS011;9109;48.050;11.696;2023-03-26T12:44:44;4.63;;;1.30;;
17967;SDS011;9109;48.050;11.696;2023-03-26T12:47:51;6.50;;;1.30;;
17967;SDS011;9109;48.050;11.696;2023-03-26T12:50:57;1.97;;;1.03;;
17967;SDS011;9109;48.050;11.696;2023-03-26T12:54:24;2.40;;;1.00;;
17967;SDS011;9109;48.050;11.696;2023-03-26T12:57:35;3.67;;;1.07;;
17967;SDS011;9109;48.050;11.696;2023-03-26T13:00:44;2.53;;;1.13;;
17967;SDS011;9109;48.050;11.696;2023-03-26T13:03:58;1.83;;;0.90;;
17967;SDS011;9109;48.050;11.696;2023-03-26T13:07:15;2.63;;;1.00;;
17967;SDS011;9109;48.050;11.696;2023-03-26T13:10:29;2.77;;;0.90;;
17967;SDS011;9109;48.050;11.696;2023-03-26T13:13:49;5.70;;;1.13;;
17967;SDS011;9109;48.050;11.696;2023-03-26T13:17:03;1.53;;;1.00;;
17967;SDS011;9109;48.050;11.696;2023-03-26T13:20:14;4.80;;;1.47;;
17967;SDS011;9109;48.050;11.696;2023-03-26T13:23:26;3.27;;;1.00;;
17967;SDS011;9109;48.050;11.696;2023-03-26T13:26:45;1.37;;;0.90;;
17967;SDS011;9109;48.050;11.696;2023-03-26T13:29:58;3.17;;;1.00;;
17967;SDS011;9109;48.050;11.696;2023-03-26T13:33:13;2.47;;;0.80;;
17967;SDS011;9109;48.050;11.696;2023-03-26T13:36:25;5.50;;;1.07;;
17967;SDS011;9109;48.050;11.696;2023-03-26T13:39:36;1.27;;;1.00;;
17967;SDS011;9109;48.050;11.696;2023-03-26T13:42:51;1.93;;;0.77;;
17967;SDS011;9109;48.050;11.696;2023-03-26T13:46:19;1.97;;;1.00;;
17967;SDS011;9109;48.050;11.696;2023-03-26T13:49:31;3.57;;;0.87;;
17967;SDS011;9109;48.050;11.696;2023-03-26T13:52:38;0.80;;;0.70;;
17967;SDS011;9109;48.050;11.696;2023-03-26T13:55:46;2.23;;;0.93;;
17967;SDS011;9109;48.050;11.696;2023-03-26T13:58:53;1.80;;;0.90;;
17967;SDS011;9109;48.050;11.696;2023-03-26T14:02:00;4.00;;;0.83;;
17967;SDS011;9109;48.050;11.696;2023-03-26T14:05:12;1.00;;;0.80;;
17967;SDS011;9109;48.050;11.696;2023-03-26T14:08:22;1.43;;;0.80;;
17967;SDS011;9109;48.050;11.696;2023-03-26T14:11:34;1.43;;;0.90;;
17967;SDS011;9109;48.050;11.696;2023-03-26T14:14:47;3.20;;;0.87;;
17967;SDS011;9109;48.050;11.696;2023-03-26T14:18:02;1.77;;;0.93;;
17967;SDS011;9109;48.050;11.696;2023-03-26T14:21:27;0.83;;;0.70;;
17967;SDS011;9109;48.050;11.696;2023-03-26T14:24:45;1.33;;;0.77;;
17967;SDS011;9109;48.050;11.696;2023-03-26T14:28:17;5.60;;;0.90;;
17967;SDS011;9109;48.050;11.696;2023-03-26T14:31:31;1.90;;;0.70;;
17967;SDS011;9109;48.050;11.696;2023-03-26T14:34:43;3.73;;;0.80;;
17967;SDS011;9109;48.050;11.696;2023-03-26T14:38:04;1.73;;;0.90;;
17967;SDS011;9109;48.050;11.696;2023-03-26T14:41:32;4.87;;;0.83;;
17967;SDS011;9109;48.050;11.696;2023-03-26T14:44:49;0.90;;;0.70;;
17967;SDS011;9109;48.050;11.696;2023-03-26T14:48:23;1.47;;;0.70;;
17967;SDS011;9109;48.050;11.696;2023-03-26T14:51:57;1.83;;;0.73;;
17967;SDS011;9109;48.050;11.696;2023-03-26T14:55:04;5.90;;;3.00;;
17967;SDS011;9109;48.050;11.696;2023-03-26T14:58:21;8.37;;;3.20;;
17967;SDS011;9109;48.050;11.696;2023-03-26T15:01:48;1.87;;;1.03;;
17967;SDS011;9109;48.050;11.696;2023-03-26T15:12:31;2.23;;;0.97;;
17967;SDS011;9109;48.050;11.696;2023-03-26T15:16:05;1.33;;;0.70;;
17967;SDS011;9109;48.050;11.696;2023-03-26T15:37:58;4.07;;;1.87;;
17967;SDS011;9109;48.050;11.696;2023-03-26T15:41:23;3.00;;;1.30;;
17967;SDS011;9109;48.050;11.696;2023-03-26T15:44:33;2.73;;;1.23;;
17967;SDS011;9109;48.050;11.696;2023-03-26T15:47:48;1.63;;;1.00;;
17967;SDS011;9109;48.050;11.696;2023-03-26T15:51:16;2.13;;;1.40;;
17967;SDS011;9109;48.050;11.696;2023-03-26T15:54:44;4.60;;;1.83;;
17967;SDS011;9109;48.050;11.696;2023-03-26T15:57:51;5.63;;;0.87;;
17967;SDS011;9109;48.050;11.696;2023-03-26T16:01:02;2.10;;;0.90;;
17967;SDS011;9109;48.050;11.696;2023-03-26T16:04:21;6.70;;;0.80;;
17967;SDS011;9109;48.050;11.696;2023-03-26T16:07:42;1.10;;;0.60;;
17967;SDS011;9109;48.050;11.696;2023-03-26T16:10:53;2.40;;;0.70;;
17967;SDS011;9109;48.050;11.696;2023-03-26T16:14:07;1.07;;;0.60;;
17967;SDS011;9109;48.050;11.696;2023-03-26T16:17:16;0.80;;;0.67;;
17967;SDS011;9109;48.050;11.696;2023-03-26T16:20:20;1.27;;;0.70;;
17967;SDS011;9109;48.050;11.696;2023-03-26T16:23:32;0.83;;;0.60;;
17967;SDS011;9109;48.050;11.696;2023-03-26T16:26:57;0.80;;;0.70;;
17967;SDS011;9109;48.050;11.696;2023-03-26T16:30:26;2.40;;;0.90;;
17967;SDS011;9109;48.050;11.696;2023-03-26T16:33:34;1.00;;;0.67;;
17967;SDS011;9109;48.050;11.696;2023-03-26T16:36:38;2.90;;;0.87;;
17967;SDS011;9109;48.050;11.696;2023-03-26T16:39:43;1.37;;;0.70;;
17967;SDS011;9109;48.050;11.696;2023-03-26T16:42:47;3.37;;;0.93;;
17967;SDS011;9109;48.050;11.696;2023-03-26T16:45:54;1.70;;;0.60;;
17967;SDS011;9109;48.050;11.696;2023-03-26T16:49:06;4.23;;;1.37;;
17967;SDS011;9109;48.050;11.696;2023-03-26T16:52:24;2.07;;;1.10;;
17967;SDS011;9109;48.050;11.696;2023-03-26T16:55:38;4.17;;;0.70;;
17967;SDS011;9109;48.050;11.696;2023-03-26T16:58:51;8.23;;;2.30;;
17967;SDS011;9109;48.050;11.696;2023-03-26T17:01:58;13.60;;;5.17;;
17967;SDS011;9109;48.050;11.696;2023-03-26T17:05:16;3.03;;;1.10;;
17967;SDS011;9109;48.050;11.696;2023-03-26T17:08:21;6.47;;;1.10;;
17967;SDS011;9109;48.050;11.696;2023-03-26T17:11:35;0.83;;;0.70;;
17967;SDS011;9109;48.050;11.696;2023-03-26T17:14:50;0.93;;;0.73;;
17967;SDS011;9109;48.050;11.696;2023-03-26T17:21:40;2.13;;;0.60;;
17967;SDS011;9109;48.050;11.696;2023-03-26T17:24:48;0.70;;;0.70;;
17967;SDS011;9109;48.050;11.696;2023-03-26T17:27:58;0.93;;;0.83;;
17967;SDS011;9109;48.050;11.696;2023-03-26T17:31:23;1.23;;;0.70;;
17967;SDS011;9109;48.050;11.696;2023-03-26T17:34:39;4.90;;;2.33;;
17967;SDS011;9109;48.050;11.696;2023-03-26T17:37:55;1.37;;;0.73;;
17967;SDS011;9109;48.050;11.696;2023-03-26T17:40:58;1.73;;;0.70;;
17967;SDS011;9109;48.050;11.696;2023-03-26T17:44:01;4.87;;;0.63;;
17967;SDS011;9109;48.050;11.696;2023-03-26T17:47:30;4.03;;;0.80;;
17967;SDS011;9109;48.050;11.696;2023-03-26T17:50:39;1.57;;;0.60;;
17967;SDS011;9109;48.050;11.696;2023-03-26T17:53:47;0.97;;;0.67;;
17967;SDS011;9109;48.050;11.696;2023-03-26T17:56:52;4.33;;;0.80;;
17967;SDS011;9109;48.050;11.696;2023-03-26T17:59:56;1.20;;;0.63;;
17967;SDS011;9109;48.050;11.696;2023-03-26T18:03:01;2.53;;;0.63;;
17967;SDS011;9109;48.050;11.696;2023-03-26T18:06:12;0.60;;;0.60;;
17967;SDS011;9109;48.050;11.696;2023-03-26T18:09:25;1.17;;;0.77;;
17967;SDS011;9109;48.050;11.696;2023-03-26T18:12:44;0.67;;;0.50;;
17967;SDS011;9109;48.050;11.696;2023-03-26T18:16:03;0.50;;;0.50;;
17967;SDS011;9109;48.050;11.696;2023-03-26T18:19:14;0.60;;;0.50;;
17967;SDS011;9109;48.050;11.696;2023-03-26T18:22:22;0.50;;;0.50;;
17967;SDS011;9109;48.050;11.696;2023-03-26T18:25:27;1.03;;;0.60;;
17967;SDS011;9109;48.050;11.696;2023-03-26T18:28:33;0.60;;;0.60;;
17967;SDS011;9109;48.050;11.696;2023-03-26T18:31:40;0.40;;;0.40;;
17967;SDS011;9109;48.050;11.696;2023-03-26T18:34:46;0.50;;;0.50;;
17967;SDS011;9109;48.050;11.696;2023-03-26T18:37:50;0.50;;;0.50;;
17967;SDS011;9109;48.050;11.696;2023-03-26T18:40:53;0.70;;;0.57;;
17967;SDS011;9109;48.050;11.696;2023-03-26T18:43:59;2.33;;;0.60;;
17967;SDS011;9109;48.050;11.696;2023-03-26T18:47:03;1.77;;;0.60;;
17967;SDS011;9109;48.050;11.696;2023-03-26T18:50:12;0.53;;;0.50;;
17967;SDS011;9109;48.050;11.696;2023-03-26T18:53:16;1.13;;;0.40;;
17967;SDS011;9109;48.050;11.696;2023-03-26T18:56:26;2.60;;;0.60;;
17967;SDS011;9109;48.050;11.696;2023-03-26T18:59:30;0.87;;;0.50;;
17967;SDS011;9109;48.050;11.696;2023-03-26T19:02:37;0.70;;;0.50;;
17967;SDS011;9109;48.050;11.696;2023-03-26T19:05:41;0.67;;;0.50;;
17967;SDS011;9109;48.050;11.696;2023-03-26T19:08:43;1.33;;;0.57;;
17967;SDS011;9109;48.050;11.696;2023-03-26T19:11:47;0.97;;;0.50;;
17967;SDS011;9109;48.050;11.696;2023-03-26T19:14:50;1.63;;;0.63;;
17967;SDS011;9109;48.050;11.696;2023-03-26T19:17:56;0.97;;;0.50;;
17967;SDS011;9109;48.050;11.696;2023-03-26T19:21:07;1.10;;;0.53;;
17967;SDS011;9109;48.050;11.696;2023-03-26T19:24:09;0.60;;;0.60;;
17967;SDS011;9109;48.050;11.696;2023-03-26T19:27:13;0.80;;;0.50;;
17967;SDS011;9109;48.050;11.696;2023-03-26T19:30:17;1.60;;;0.70;;
17967;SDS011;9109;48.050;11.696;2023-03-26T19:34:24;0.97;;;0.57;;
17967;SDS011;9109;48.050;11.696;2023-03-26T19:37:54;1.00;;;0.50;;
17967;SDS011;9109;48.050;11.696;2023-03-26T19:45:24;0.80;;;0.60;;
17967;SDS011;9109;48.050;11.696;2023-03-26T19:48:55;2.17;;;0.80;;
17967;SDS011;9109;48.050;11.696;2023-03-26T19:52:19;1.13;;;0.60;;
17967;SDS011;9109;48.050;11.696;2023-03-26T19:55:54;0.50;;;0.50;;
17967;SDS011;9109;48.050;11.696;2023-03-26T19:59:15;0.50;;;0.50;;
17967;SDS011;9109;48.050;11.696;2023-03-26T20:43:29;0.60;;;0.60;;
17967;SDS011;9109;48.050;11.696;2023-03-26T20:46:52;0.60;;;0.60;;
17967;SDS011;9109;48.050;11.696;2023-03-26T20:49:58;3.20;;;0.60;;
17967;SDS011;9109;48.050;11.696;2023-03-26T20:53:03;0.83;;;0.60;;
17967;SDS011;9109;48.050;11.696;2023-03-26T20:56:30;0.57;;;0.57;;
17967;SDS011;9109;48.050;11.696;2023-03-26T21:00:00;3.23;;;0.50;;
17967;SDS011;9109;48.050;11.696;2023-03-26T21:03:23;1.47;;;0.60;;
17967;SDS011;9109;48.050;11.696;2023-03-26T21:06:25;0.60;;;0.60;;
17967;SDS011;9109;48.050;11.696;2023-03-26T21:09:30;0.77;;;0.50;;
17967;SDS011;9109;48.050;11.696;2023-03-26T21:12:39;1.30;;;0.63;;
17967;SDS011;9109;48.050;11.696;2023-03-26T21:19:22;3.70;;;0.63;;
17967;SDS011;9109;48.050;11.696;2023-03-26T21:22:29;0.50;;;0.50;;
17967;SDS011;9109;48.050;11.696;2023-03-26T21:25:55;3.53;;;0.70;;
17967;SDS011;9109;48.050;11.696;2023-03-26T21:29:16;1.13;;;0.80;;
17967;SDS011;9109;48.050;11.696;2023-03-26T21:32:48;0.87;;;0.60;;
17967;SDS011;9109;48.050;11.696;2023-03-26T21:35:53;3.10;;;0.60;;
17967;SDS011;9109;48.050;11.696;2023-03-26T21:38:57;0.40;;;0.40;;
17967;SDS011;9109;48.050;11.696;2023-03-26T21:42:13;0.80;;;0.60;;
17967;SDS011;9109;48.050;11.696;2023-03-26T21:45:32;2.03;;;0.70;;
17967;SDS011;9109;48.050;11.696;2023-03-26T21:48:51;1.37;;;1.27;;
17967;SDS011;9109;48.050;11.696;2023-03-26T21:52:01;1.73;;;0.70;;
17967;SDS011;9109;48.050;11.696;2023-03-26T21:55:04;0.93;;;0.53;;
17967;SDS011;9109;48.050;11.696;2023-03-26T21:58:15;1.37;;;0.60;;
17967;SDS011;9109;48.050;11.696;2023-03-26T22:01:31;0.60;;;0.53;;
17967;SDS011;9109;48.050;11.696;2023-03-26T22:04:43;1.07;;;0.37;;
17967;SDS011;9109;48.050;11.696;2023-03-26T22:07:57;0.50;;;0.50;;
17967;SDS011;9109;48.050;11.696;2023-03-26T22:11:27;0.50;;;0.50;;
17967;SDS011;9109;48.050;11.696;2023-03-26T22:14:35;1.37;;;0.60;;
17967;SDS011;9109;48.050;11.696;2023-03-26T22:18:12;0.50;;;0.50;;
17967;SDS011;9109;48.050;11.696;2023-03-26T22:28:45;3.30;;;0.53;;
17967;SDS011;9109;48.050;11.696;2023-03-26T22:32:19;2.30;;;0.50;;
17967;SDS011;9109;48.050;11.696;2023-03-26T22:36:28;2.40;;;0.60;;
17967;SDS011;9109;48.050;11.696;2023-03-26T22:44:25;0.50;;;0.50;;
17967;SDS011;9109;48.050;11.696;2023-03-26T22:47:44;0.53;;;0.53;;
17967;SDS011;9109;48.050;11.696;2023-03-26T22:51:01;2.30;;;0.60;;
17967;SDS011;9109;48.050;11.696;2023-03-26T22:54:38;2.07;;;0.70;;
17967;SDS011;9109;48.050;11.696;2023-03-26T22:57:43;0.83;;;0.47;;
